createdAt,value
2018-06-09T00:00:09.693Z,18.94
2018-06-09T00:02:38.539Z,18.93
2018-06-09T00:05:07.364Z,18.88
2018-06-09T00:07:36.181Z,18.84
2018-06-09T00:10:05.084Z,18.79
2018-06-09T00:12:34.001Z,18.75
2018-06-09T00:15:02.796Z,18.72
2018-06-09T00:17:31.634Z,18.69
2018-06-09T00:20:00.518Z,18.57
2018-06-09T00:22:29.372Z,18.47
2018-06-09T00:24:58.197Z,18.43
2018-06-09T00:27:27.103Z,18.22
2018-06-09T00:29:55.989Z,18.19
2018-06-09T00:32:24.810Z,18.04
2018-06-09T00:34:53.713Z,17.99
2018-06-09T00:37:22.606Z,18.12
2018-06-09T00:39:51.521Z,18.22
2018-06-09T00:42:20.370Z,18.26
2018-06-09T00:44:49.223Z,18.28
2018-06-09T00:47:18.114Z,18.31
2018-06-09T00:49:46.974Z,18.31
2018-06-09T00:52:15.795Z,18.34
2018-06-09T00:54:44.645Z,18.33
2018-06-09T00:57:13.418Z,18.24
2018-06-09T00:59:42.234Z,18.08
2018-06-09T01:02:11.126Z,17.90
2018-06-09T01:04:39.965Z,17.87
2018-06-09T01:07:08.962Z,17.76
2018-06-09T01:09:37.810Z,17.70
2018-06-09T01:12:06.729Z,17.63
2018-06-09T01:14:35.562Z,17.50
2018-06-09T01:17:04.428Z,17.54
2018-06-09T01:19:33.372Z,17.45
2018-06-09T01:22:02.272Z,17.30
2018-06-09T01:24:31.154Z,17.24
2018-06-09T01:26:59.989Z,17.36
2018-06-09T01:29:28.835Z,17.26
2018-06-09T01:31:57.682Z,17.25
2018-06-09T01:34:26.543Z,17.16
2018-06-09T01:36:55.417Z,17.31
2018-06-09T01:39:24.301Z,17.35
2018-06-09T01:41:53.144Z,17.36
2018-06-09T01:44:22.029Z,17.26
2018-06-09T01:46:50.843Z,17.26
2018-06-09T01:49:19.663Z,17.09
2018-06-09T01:51:48.545Z,17.23
2018-06-09T01:54:17.388Z,17.21
2018-06-09T01:56:46.289Z,17.21
2018-06-09T01:59:15.184Z,17.04
2018-06-09T02:01:44.075Z,16.99
2018-06-09T02:04:13.036Z,16.99
2018-06-09T02:06:41.882Z,17.00
2018-06-09T02:09:10.740Z,16.84
2018-06-09T02:11:39.637Z,16.74
2018-06-09T02:14:08.529Z,16.65
2018-06-09T02:16:37.401Z,16.64
2018-06-09T02:19:06.306Z,16.62
2018-06-09T02:21:35.215Z,16.57
2018-06-09T02:24:04.083Z,16.57
2018-06-09T02:26:32.978Z,16.59
2018-06-09T02:29:01.879Z,16.64
2018-06-09T02:31:30.703Z,16.48
2018-06-09T02:33:59.601Z,16.28
2018-06-09T02:36:28.478Z,16.07
2018-06-09T02:38:57.356Z,16.15
2018-06-09T02:41:26.309Z,16.15
2018-06-09T02:43:55.216Z,16.17
2018-06-09T02:46:24.117Z,16.28
2018-06-09T02:48:53.048Z,16.28
2018-06-09T02:51:21.915Z,16.39
2018-06-09T02:53:50.886Z,16.50
2018-06-09T02:56:19.769Z,16.64
2018-06-09T02:58:48.714Z,16.62
2018-06-09T03:01:17.572Z,16.69
2018-06-09T03:03:46.478Z,16.71
2018-06-09T03:06:15.384Z,16.50
2018-06-09T03:08:44.317Z,16.54
2018-06-09T03:11:13.229Z,16.57
2018-06-09T03:13:42.103Z,16.63
2018-06-09T03:16:10.959Z,16.68
2018-06-09T03:18:39.884Z,16.63
2018-06-09T03:21:08.766Z,16.79
2018-06-09T03:23:37.700Z,16.70
2018-06-09T03:26:06.589Z,16.55
2018-06-09T03:28:35.453Z,16.71
2018-06-09T03:31:04.349Z,16.77
2018-06-09T03:33:33.196Z,16.68
2018-06-09T03:36:02.079Z,16.51
2018-06-09T03:38:30.972Z,16.46
2018-06-09T03:40:59.894Z,16.50
2018-06-09T03:43:28.883Z,16.67
2018-06-09T03:45:57.672Z,16.76
2018-06-09T03:48:26.537Z,16.78
2018-06-09T03:50:55.402Z,16.86
2018-06-09T03:53:24.241Z,16.93
2018-06-09T03:55:53.130Z,17.18
2018-06-09T03:58:26.352Z,17.03
2018-06-09T04:00:55.515Z,17.01
2018-06-09T04:03:24.358Z,17.31
2018-06-09T04:05:53.197Z,17.47
2018-06-09T04:08:22.056Z,17.52
2018-06-09T04:10:50.871Z,17.69
2018-06-09T04:13:19.767Z,17.78
2018-06-09T04:15:48.613Z,18.01
2018-06-09T04:18:17.476Z,18.07
2018-06-09T04:20:46.288Z,18.15
2018-06-09T04:23:15.124Z,18.19
2018-06-09T04:25:44.044Z,18.24
2018-06-09T04:30:18.845Z,18.22
2018-06-09T04:32:47.682Z,18.43
2018-06-09T04:35:16.504Z,18.45
2018-06-09T04:37:45.316Z,18.90
2018-06-09T04:40:14.170Z,19.50
2018-06-09T04:42:43.005Z,19.49
2018-06-09T04:45:11.878Z,19.48
2018-06-09T04:47:48.777Z,19.41
2018-06-09T04:50:17.728Z,19.61
2018-06-09T04:52:54.222Z,19.78
2018-06-09T04:55:23.090Z,20.07
2018-06-09T04:57:51.924Z,20.63
2018-06-09T05:00:20.782Z,20.10
2018-06-09T05:02:49.626Z,20.40
2018-06-09T05:05:18.509Z,20.81
2018-06-09T05:07:47.460Z,20.61
2018-06-09T05:10:16.464Z,21.14
2018-06-09T05:12:45.374Z,21.30
2018-06-09T05:15:14.256Z,21.30
2018-06-09T05:17:43.305Z,21.12
2018-06-09T05:20:12.145Z,20.81
2018-06-09T05:22:41.071Z,19.83
2018-06-09T05:25:09.969Z,20.18
2018-06-09T05:27:38.810Z,19.83
2018-06-09T05:30:07.753Z,19.86
2018-06-09T05:32:36.659Z,20.00
2018-06-09T05:35:05.667Z,20.17
2018-06-09T05:37:34.540Z,20.55
2018-06-09T05:40:03.470Z,21.09
2018-06-09T05:42:32.356Z,21.86
2018-06-09T05:45:01.236Z,22.46
2018-06-09T05:47:30.148Z,23.00
2018-06-09T05:50:02.866Z,23.58
2018-06-09T05:52:43.256Z,24.57
2018-06-09T05:55:24.608Z,24.76
2018-06-09T05:57:53.802Z,25.16
2018-06-09T06:00:22.709Z,25.22
2018-06-09T06:02:51.605Z,25.63
2018-06-09T06:05:20.447Z,25.11
2018-06-09T06:07:49.361Z,24.57
2018-06-09T06:10:18.205Z,24.52
2018-06-09T06:12:50.935Z,25.44
2018-06-09T06:15:19.785Z,25.92
2018-06-09T06:17:48.675Z,25.90
2018-06-09T06:20:17.584Z,26.27
2018-06-09T06:22:46.424Z,25.59
2018-06-09T06:25:15.357Z,24.53
2018-06-09T06:27:44.253Z,23.53
2018-06-09T06:30:13.166Z,23.21
2018-06-09T06:32:42.005Z,22.81
2018-06-09T06:35:10.909Z,22.29
2018-06-09T06:37:39.755Z,22.59
2018-06-09T06:40:08.638Z,22.78
2018-06-09T06:42:37.531Z,22.72
2018-06-09T06:45:07.441Z,22.22
2018-06-09T06:47:36.496Z,21.91
2018-06-09T06:50:05.397Z,22.15
2018-06-09T06:52:34.376Z,22.08
2018-06-09T06:55:05.835Z,22.25
2018-06-09T06:57:34.755Z,22.17
2018-06-09T07:00:03.872Z,22.20
2018-06-09T07:02:32.787Z,22.41
2018-06-09T07:05:01.686Z,23.32
2018-06-09T07:07:30.619Z,23.52
2018-06-09T07:09:59.503Z,23.64
2018-06-09T07:12:28.453Z,23.49
2018-06-09T07:14:57.344Z,23.38
2018-06-09T07:17:26.392Z,23.23
2018-06-09T07:19:55.277Z,23.33
2018-06-09T07:22:24.144Z,23.29
2018-06-09T07:24:53.059Z,23.35
2018-06-09T07:27:22.055Z,23.35
2018-06-09T07:29:51.742Z,23.61
2018-06-09T07:32:21.061Z,23.99
2018-06-09T07:34:49.929Z,23.95
2018-06-09T07:37:21.225Z,23.56
2018-06-09T07:39:50.189Z,23.37
2018-06-09T07:42:19.176Z,23.28
2018-06-09T07:44:48.168Z,23.27
2018-06-09T07:47:17.173Z,23.44
2018-06-09T07:49:46.403Z,23.39
2018-06-09T07:52:15.292Z,23.26
2018-06-09T07:54:44.225Z,23.21
2018-06-09T07:57:13.116Z,23.12
2018-06-09T07:59:42.130Z,23.07
2018-06-09T08:02:11.034Z,23.03
2018-06-09T08:04:39.949Z,23.05
2018-06-09T08:07:08.922Z,23.15
2018-06-09T08:09:39.446Z,23.19
2018-06-09T08:12:08.394Z,23.29
2018-06-09T08:14:37.236Z,23.41
2018-06-09T08:17:06.083Z,23.56
2018-06-09T08:19:35.027Z,23.58
2018-06-09T08:22:03.873Z,23.49
2018-06-09T08:24:32.716Z,23.39
2018-06-09T08:27:01.644Z,23.45
2018-06-09T08:29:30.642Z,23.64
2018-06-09T08:31:59.515Z,23.85
2018-06-09T08:34:28.455Z,24.03
2018-06-09T08:36:57.378Z,24.18
2018-06-09T08:39:26.320Z,24.49
2018-06-09T08:41:55.319Z,24.29
2018-06-09T08:44:24.246Z,24.54
2018-06-09T08:46:53.130Z,24.53
2018-06-09T08:49:22.148Z,24.43
2018-06-09T08:51:51.122Z,24.38
2018-06-09T08:54:20.060Z,24.51
2018-06-09T08:56:49.015Z,24.54
2018-06-09T08:59:17.889Z,24.61
2018-06-09T09:01:57.950Z,24.51
2018-06-09T09:04:37.742Z,24.52
2018-06-09T09:07:14.237Z,24.59
2018-06-09T09:09:43.150Z,24.63
2018-06-09T09:12:12.090Z,24.88
2018-06-09T09:14:41.049Z,24.98
2018-06-09T09:17:09.949Z,24.99
2018-06-09T09:19:38.844Z,25.15
2018-06-09T09:22:07.770Z,25.05
2018-06-09T09:24:36.692Z,25.12
2018-06-09T09:27:05.610Z,25.16
2018-06-09T09:29:34.492Z,25.18
2018-06-09T09:32:03.404Z,25.10
2018-06-09T09:34:32.381Z,24.89
2018-06-09T09:37:01.232Z,25.01
2018-06-09T09:39:30.147Z,24.89
2018-06-09T09:42:00.471Z,24.97
2018-06-09T09:44:29.335Z,24.92
2018-06-09T09:46:58.281Z,24.95
2018-06-09T09:49:27.212Z,24.90
2018-06-09T09:51:56.160Z,24.94
2018-06-09T09:54:25.027Z,24.93
2018-06-09T09:57:01.252Z,25.03
2018-06-09T09:59:30.182Z,24.95
2018-06-09T10:02:10.571Z,25.04
2018-06-09T10:04:56.178Z,25.20
2018-06-09T10:07:27.572Z,24.86
2018-06-09T10:10:10.869Z,24.82
2018-06-09T10:12:39.874Z,24.77
2018-06-09T10:15:08.806Z,24.94
2018-06-09T10:17:37.589Z,24.98
2018-06-09T10:20:06.495Z,24.95
2018-06-09T10:22:35.369Z,24.99
2018-06-09T10:25:04.389Z,25.11
2018-06-09T10:27:33.236Z,25.32
2018-06-09T10:30:02.128Z,25.26
2018-06-09T10:32:31.115Z,25.32
2018-06-09T10:34:59.994Z,25.40
2018-06-09T10:37:28.866Z,25.43
2018-06-09T10:39:57.750Z,25.52
2018-06-09T10:42:26.695Z,25.60
2018-06-09T10:44:55.686Z,25.84
2018-06-09T10:47:24.583Z,25.96
2018-06-09T10:49:53.478Z,26.03
2018-06-09T10:52:22.354Z,25.98
2018-06-09T10:54:51.213Z,25.81
2018-06-09T10:57:20.089Z,25.87
2018-06-09T10:59:49.355Z,26.19
2018-06-09T11:02:18.249Z,26.36
2018-06-09T11:04:47.091Z,26.44
2018-06-09T11:07:16.001Z,26.50
2018-06-09T11:09:45.653Z,26.44
2018-06-09T11:12:14.632Z,26.69
2018-06-09T11:14:43.599Z,26.73
2018-06-09T11:17:12.466Z,26.62
2018-06-09T11:20:01.405Z,27.03
2018-06-09T11:23:02.676Z,27.44
2018-06-09T11:25:36.713Z,27.82
2018-06-09T11:28:05.595Z,27.88
2018-06-09T11:30:44.863Z,28.12
2018-06-09T11:33:13.763Z,27.82
2018-06-09T11:36:12.069Z,27.79
2018-06-09T11:38:41.012Z,27.86
2018-06-09T11:41:09.900Z,27.80
2018-06-09T11:43:38.764Z,27.80
2018-06-09T11:46:07.621Z,27.36
2018-06-09T11:48:36.530Z,27.68
2018-06-09T11:51:05.385Z,28.01
2018-06-09T11:53:34.254Z,27.98
2018-06-09T11:56:03.208Z,27.91
2018-06-09T11:58:32.047Z,28.13
2018-06-09T12:01:00.979Z,28.10
2018-06-09T12:03:29.999Z,28.16
2018-06-09T12:05:58.900Z,28.28
2018-06-09T12:08:27.829Z,28.22
2018-06-09T12:11:01.321Z,27.99
2018-06-09T12:13:39.916Z,28.06
2018-06-09T12:16:08.972Z,28.04
2018-06-09T12:18:37.847Z,27.75
2018-06-09T12:21:06.725Z,27.55
2018-06-09T12:23:35.664Z,27.36
2018-06-09T12:26:05.545Z,27.35
2018-06-09T12:28:35.381Z,27.48
2018-06-09T12:31:05.169Z,27.96
2018-06-09T12:33:34.084Z,28.04
2018-06-09T12:36:02.969Z,28.03
2018-06-09T12:38:31.827Z,28.26
2018-06-09T12:41:00.735Z,28.38
2018-06-09T12:43:33.614Z,28.46
2018-06-09T12:46:04.907Z,28.12
2018-06-09T12:48:33.914Z,28.13
2018-06-09T12:51:02.779Z,28.15
2018-06-09T12:53:31.621Z,28.17
2018-06-09T12:56:00.832Z,27.98
2018-06-09T12:58:29.778Z,28.11
2018-06-09T13:00:59.817Z,28.39
2018-06-09T13:03:29.378Z,28.63
2018-06-09T13:05:58.291Z,28.76
2018-06-09T13:08:28.451Z,28.95
2018-06-09T13:11:07.965Z,28.90
2018-06-09T13:13:37.158Z,28.82
2018-06-09T13:16:06.060Z,28.86
2018-06-09T13:18:34.925Z,28.51
2018-06-09T13:21:03.872Z,28.48
2018-06-09T13:23:32.739Z,28.59
2018-06-09T13:26:01.599Z,28.68
2018-06-09T13:28:31.557Z,28.79
2018-06-09T13:31:00.936Z,28.87
2018-06-09T13:33:33.109Z,29.01
2018-06-09T13:36:02.120Z,28.95
2018-06-09T13:38:31.442Z,28.89
2018-06-09T13:41:00.473Z,28.80
2018-06-09T13:43:29.490Z,28.94
2018-06-09T13:45:58.323Z,28.85
2018-06-09T13:48:27.666Z,28.98
2018-06-09T13:50:56.525Z,28.86
2018-06-09T13:53:25.381Z,28.99
2018-06-09T13:55:54.246Z,28.91
2018-06-09T13:58:23.082Z,28.94
2018-06-09T14:00:51.942Z,28.55
2018-06-09T14:03:20.780Z,28.58
2018-06-09T14:05:50.182Z,28.53
2018-06-09T14:08:19.506Z,28.67
2018-06-09T14:10:51.502Z,28.25
2018-06-09T14:13:21.379Z,28.04
2018-06-09T14:15:51.219Z,28.00
2018-06-09T14:18:20.213Z,28.10
2018-06-09T14:20:49.287Z,28.24
2018-06-09T14:23:18.271Z,28.01
2018-06-09T14:25:47.145Z,27.95
2018-06-09T14:28:16.227Z,27.76
2018-06-09T14:30:45.093Z,27.67
2018-06-09T14:33:13.980Z,27.55
2018-06-09T14:35:43.179Z,27.60
2018-06-09T14:38:12.546Z,27.55
2018-06-09T14:40:41.507Z,27.58
2018-06-09T14:43:10.359Z,27.80
2018-06-09T14:45:39.605Z,27.95
2018-06-09T14:48:08.428Z,27.95
2018-06-09T14:50:38.377Z,28.29
2018-06-09T14:53:08.258Z,28.57
2018-06-09T14:55:38.151Z,28.45
2018-06-09T14:58:08.214Z,28.57
2018-06-09T15:00:48.151Z,28.56
2018-06-09T15:03:17.412Z,28.62
2018-06-09T15:05:46.314Z,28.88
2018-06-09T15:08:15.232Z,28.96
2018-06-09T15:10:44.153Z,28.90
2018-06-09T15:13:13.053Z,28.90
2018-06-09T15:15:41.886Z,28.77
2018-06-09T15:33:41.716Z,27.65
2018-06-09T15:36:10.821Z,27.56
2018-06-09T15:38:39.863Z,27.51
2018-06-09T15:41:09.582Z,27.53
2018-06-09T15:43:39.067Z,27.49
2018-06-09T15:46:08.222Z,27.18
2018-06-09T15:49:19.064Z,27.05
2018-06-09T15:51:48.735Z,26.75
2018-06-09T15:54:18.537Z,26.74
2018-06-09T15:56:48.518Z,26.64
2018-06-09T15:59:17.494Z,26.72
2018-06-09T16:01:49.767Z,26.53
2018-06-09T16:04:19.029Z,26.45
2018-06-09T16:06:47.889Z,26.46
2018-06-09T16:09:16.894Z,26.35
2018-06-09T16:11:47.398Z,26.36
2018-06-09T16:14:17.232Z,26.25
2018-06-09T16:16:47.255Z,26.24
2018-06-09T16:19:17.332Z,26.11
2018-06-09T16:21:46.227Z,25.94
2018-06-09T16:24:15.020Z,26.04
2018-06-09T16:26:43.962Z,25.97
2018-06-09T16:29:12.835Z,25.80
2018-06-09T16:31:41.736Z,25.74
2018-06-09T16:34:10.797Z,25.74
2018-06-09T16:36:39.653Z,25.79
2018-06-09T16:39:08.644Z,25.78
2018-06-09T16:41:37.575Z,25.73
2018-06-09T16:44:06.695Z,25.64
2018-06-09T16:46:35.593Z,25.65
2018-06-09T16:49:04.579Z,25.59
2018-06-09T16:51:33.466Z,25.51
2018-06-09T16:54:02.516Z,25.48
2018-06-09T16:56:31.664Z,25.39
2018-06-09T16:59:00.724Z,25.38
2018-06-09T17:01:29.954Z,25.37
2018-06-09T17:03:59.172Z,25.30
2018-06-09T17:06:28.277Z,25.22
2018-06-09T17:08:57.357Z,25.13
2018-06-09T17:11:26.353Z,25.07
2018-06-09T17:13:55.237Z,24.98
2018-06-09T17:16:24.108Z,25.02
2018-06-09T17:18:53.367Z,25.03
2018-06-09T17:21:22.251Z,25.00
2018-06-09T17:23:51.221Z,24.92
2018-06-09T17:26:20.317Z,24.75
2018-06-09T17:28:49.900Z,24.68
2018-06-09T17:31:18.864Z,24.74
2018-06-09T17:33:48.167Z,24.88
2018-06-09T17:36:17.058Z,24.77
2018-06-09T17:38:45.902Z,24.68
2018-06-09T17:41:15.539Z,24.70
2018-06-09T17:43:44.445Z,24.70
2018-06-09T17:46:13.591Z,24.66
2018-06-09T17:48:42.548Z,24.68
2018-06-09T17:51:11.527Z,24.73
2018-06-09T17:53:40.569Z,24.69
2018-06-09T17:56:09.547Z,24.72
2018-06-09T17:58:38.393Z,24.61
2018-06-09T18:01:07.396Z,24.53
2018-06-09T18:03:36.795Z,24.47
2018-06-09T18:06:05.759Z,24.51
2018-06-09T18:08:34.631Z,24.34
2018-06-09T18:11:03.559Z,24.24
2018-06-09T18:13:32.399Z,24.18
2018-06-09T18:16:01.352Z,24.00
2018-06-09T18:18:47.791Z,23.99
2018-06-09T18:21:16.709Z,23.88
2018-06-09T18:23:45.807Z,23.78
2018-06-09T18:26:14.732Z,23.78
2018-06-09T18:28:43.587Z,23.63
2018-06-09T18:31:12.921Z,23.61
2018-06-09T18:33:41.964Z,23.49
2018-06-09T18:36:10.902Z,23.38
2018-06-09T18:38:40.272Z,23.41
2018-06-09T18:41:09.358Z,23.24
2018-06-09T18:43:38.294Z,23.14
2018-06-09T18:46:07.461Z,22.88
2018-06-09T18:48:36.364Z,22.80
2018-06-09T18:51:05.511Z,22.61
2018-06-09T18:53:34.425Z,22.59
2018-06-09T18:56:03.335Z,22.66
2018-06-09T18:58:32.626Z,22.51
2018-06-09T19:01:01.455Z,22.34
2018-06-09T19:03:30.414Z,22.31
2018-06-09T19:05:59.571Z,22.28
2018-06-09T19:08:28.477Z,22.05
2018-06-09T19:10:57.395Z,22.02
2018-06-09T19:13:26.283Z,22.03
2018-06-09T19:15:56.653Z,21.92
2018-06-09T19:18:25.537Z,21.87
2018-06-09T19:20:54.426Z,21.74
2018-06-09T19:23:23.324Z,21.59
2018-06-09T19:25:52.190Z,21.53
2018-06-09T19:28:21.394Z,21.47
2018-06-09T19:30:50.353Z,21.45
2018-06-09T19:33:19.877Z,21.37
2018-06-09T19:35:49.803Z,21.32
2018-06-09T19:38:19.156Z,21.21
2018-06-09T19:40:48.642Z,21.15
2018-06-09T19:43:18.300Z,21.03
2018-06-09T19:45:47.245Z,21.00
2018-06-09T19:48:16.225Z,20.96
2018-06-09T19:50:45.375Z,20.85
2018-06-09T19:53:14.293Z,20.82
2018-06-09T19:55:43.749Z,20.67
2018-06-09T19:58:13.494Z,20.53
2018-06-09T20:00:43.108Z,20.54
2018-06-09T20:03:12.145Z,20.45
2018-06-09T20:05:41.070Z,20.43
2018-06-09T20:08:12.557Z,20.32
2018-06-09T20:10:41.441Z,20.29
2018-06-09T20:13:10.342Z,20.19
2018-06-09T20:15:39.233Z,20.12
2018-06-09T20:30:13.782Z,20.03
2018-06-09T20:32:42.710Z,19.72
2018-06-09T20:35:11.577Z,19.68
2018-06-09T20:37:41.321Z,19.67
2018-06-09T20:40:10.246Z,19.65
2018-06-09T20:42:39.225Z,19.61
2018-06-09T20:45:08.095Z,19.50
2018-06-09T20:47:36.965Z,19.49
2018-06-09T20:50:05.849Z,19.41
2018-06-09T20:52:34.705Z,19.28
2018-06-09T20:55:03.610Z,19.18
2018-06-09T20:57:32.541Z,19.14
2018-06-09T21:00:01.425Z,19.04
2018-06-09T21:02:30.638Z,18.99
2018-06-09T21:04:59.582Z,18.94
2018-06-09T21:07:28.450Z,19.02
2018-06-09T21:09:58.316Z,19.09
2018-06-09T21:12:27.134Z,19.08
2018-06-09T21:14:55.975Z,19.03
2018-06-09T21:17:25.490Z,18.98
2018-06-09T21:19:54.397Z,18.95
2018-06-09T21:22:23.269Z,18.98
2018-06-09T21:24:53.669Z,19.04
2018-06-09T21:27:27.798Z,19.10
2018-06-09T21:29:59.440Z,19.01
2018-06-09T21:32:29.020Z,18.94
2018-06-09T21:35:12.926Z,18.96
2018-06-09T21:37:43.305Z,18.95
2018-06-09T21:40:17.404Z,18.94
2018-06-09T21:42:50.614Z,19.00
2018-06-09T21:45:28.460Z,19.02
2018-06-09T21:47:57.697Z,19.03
2018-06-09T21:50:26.620Z,19.04
2018-06-09T21:52:55.463Z,19.09
2018-06-09T21:55:24.322Z,19.06
2018-06-09T21:57:53.237Z,19.10
2018-06-09T22:00:22.204Z,19.08
2018-06-09T22:02:51.477Z,19.11
2018-06-09T22:05:20.389Z,19.02
2018-06-09T22:07:49.293Z,19.01
2018-06-09T22:10:19.126Z,18.96
2018-06-09T22:12:48.019Z,18.90
2018-06-09T22:15:16.879Z,18.83
2018-06-09T22:17:46.787Z,18.66
2018-06-09T22:20:15.988Z,18.53
2018-06-09T22:22:45.571Z,18.56
2018-06-09T22:25:19.435Z,18.56
2018-06-09T22:27:49.678Z,18.58
2018-06-09T22:30:19.731Z,18.49
2018-06-09T22:32:48.623Z,18.51
2018-06-09T22:35:17.680Z,18.49
2018-06-09T22:37:50.046Z,18.41
2018-06-09T22:40:18.978Z,18.32
2018-06-09T22:42:47.896Z,18.25
2018-06-09T22:45:17.633Z,18.34
2018-06-09T22:47:46.475Z,18.29
2018-06-09T22:50:17.099Z,18.22
2018-06-09T22:52:45.962Z,18.25
2018-06-09T22:55:14.832Z,18.31
2018-06-09T22:57:44.983Z,18.33
2018-06-09T23:00:21.042Z,18.33
2018-06-09T23:02:50.115Z,18.38
2018-06-09T23:05:18.996Z,18.42
2018-06-09T23:07:47.965Z,18.44
2018-06-09T23:10:16.947Z,18.45
2018-06-09T23:12:46.236Z,18.43
2018-06-09T23:15:15.110Z,18.43
2018-06-09T23:17:43.965Z,18.43
2018-06-09T23:20:12.839Z,18.36
2018-06-09T23:22:41.726Z,18.50
2018-06-09T23:25:10.608Z,18.45
2018-06-09T23:27:39.441Z,18.36
2018-06-09T23:30:08.359Z,18.33
2018-06-09T23:32:37.325Z,18.35
2018-06-09T23:35:06.274Z,18.36
2018-06-09T23:37:35.182Z,18.36
2018-06-09T23:40:04.065Z,18.35
2018-06-09T23:42:33.414Z,18.37
2018-06-09T23:45:02.274Z,18.41
2018-06-09T23:47:31.210Z,18.36
2018-06-09T23:50:00.122Z,18.33
2018-06-09T23:52:29.021Z,18.23
2018-06-09T23:54:57.906Z,18.14
2018-06-09T23:57:26.821Z,18.20
2018-06-09T23:59:55.724Z,18.27
